Time;durP1;ratioP1;P1;durP2;ratioP2;P2;SDS_P1;SDS_P2;PMS_P1;PMS_P2;Temp;Humidity;BMP_temperature;BMP_pressure;BME280_temperature;BME280_humidity;BME280_pressure;Samples;Min_cycle;Max_cycle;Signal;HPM_P1;HPM_P2
2022/01/12 00:00:32;;;;;;;16.93;9.10;;;2.70;99.90;;;;;;5001623;23;20242;-83
2022/01/12 00:02:58;;;;;;;15.00;9.17;;;2.70;99.90;;;;;;4977391;28;20275;-83
2022/01/12 00:05:24;;;;;;;17.83;9.17;;;2.70;99.90;;;;;;4974395;28;20498;-83
2022/01/12 00:07:51;;;;;;;15.47;9.57;;;2.60;99.90;;;;;;4974675;28;20418;-84
2022/01/12 00:10:18;;;;;;;15.10;9.17;;;2.60;99.90;;;;;;4974656;28;20427;-83
2022/01/12 00:12:43;;;;;;;13.90;8.90;;;2.60;99.90;;;;;;4980224;28;20531;-83
2022/01/12 00:15:10;;;;;;;14.90;9.70;;;2.60;99.90;;;;;;4977080;28;20511;-83
2022/01/12 00:17:35;;;;;;;16.87;10.23;;;2.60;99.90;;;;;;4977174;28;20266;-82
2022/01/12 00:20:02;;;;;;;11.60;7.63;;;2.50;99.90;;;;;;4977716;28;20471;-83
2022/01/12 00:22:28;;;;;;;17.57;8.80;;;2.50;99.90;;;;;;4977464;28;20207;-83
2022/01/12 00:33:13;;;;;;;17.23;9.83;;;2.30;99.90;;;;;;4994567;28;20442;-83
2022/01/12 00:35:42;;;;;;;16.93;9.47;;;2.10;99.90;;;;;;4977016;28;20478;-83
2022/01/12 00:38:08;;;;;;;18.00;8.80;;;2.10;99.90;;;;;;4978659;28;20419;-83
2022/01/12 00:40:47;;;;;;;16.17;8.97;;;2.00;99.90;;;;;;4986325;28;20490;-84
2022/01/12 00:43:13;;;;;;;14.87;9.50;;;2.00;99.90;;;;;;4984818;28;20451;-84
2022/01/12 00:45:43;;;;;;;16.97;8.73;;;1.90;99.90;;;;;;4983986;28;20968;-83
2022/01/12 00:48:17;;;;;;;15.77;8.37;;;1.90;99.90;;;;;;4984766;28;20428;-84
2022/01/12 00:50:43;;;;;;;13.47;8.10;;;1.80;99.90;;;;;;4984143;28;20419;-83
2022/01/12 00:53:10;;;;;;;14.53;7.70;;;1.80;99.90;;;;;;4983635;28;20475;-83
2022/01/12 00:55:36;;;;;;;15.07;8.90;;;1.80;99.90;;;;;;4983339;28;20514;-83
2022/01/12 00:58:03;;;;;;;15.70;9.07;;;1.80;99.90;;;;;;4982748;28;20918;-84
2022/01/12 01:00:29;;;;;;;11.80;8.20;;;1.80;99.90;;;;;;4982855;28;20773;-84
2022/01/12 01:02:56;;;;;;;14.57;8.77;;;1.80;99.90;;;;;;4983033;28;20451;-83
2022/01/12 01:05:24;;;;;;;13.97;8.13;;;1.70;99.90;;;;;;4982611;28;20445;-84
2022/01/12 01:07:51;;;;;;;16.43;8.97;;;1.70;99.90;;;;;;4982654;28;20421;-83
2022/01/12 01:10:35;;;;;;;15.00;8.50;;;1.70;99.90;;;;;;4982352;28;20477;-83
2022/01/12 01:13:00;;;;;;;17.40;7.90;;;1.70;99.90;;;;;;4982260;28;20835;-84
2022/01/12 01:26:43;;;;;;;14.20;8.43;;;1.60;99.90;;;;;;4998649;28;20465;-83
2022/01/12 01:29:09;;;;;;;16.23;9.00;;;1.60;99.90;;;;;;4980406;28;20512;-83
2022/01/12 01:31:36;;;;;;;17.13;9.53;;;1.60;99.90;;;;;;4980153;28;20438;-83
2022/01/12 01:34:12;;;;;;;16.27;8.47;;;1.70;99.90;;;;;;4980157;28;20458;-83
2022/01/12 01:36:47;;;;;;;15.17;8.87;;;1.70;99.90;;;;;;4979945;28;20488;-83
2022/01/12 01:39:19;;;;;;;16.60;7.47;;;1.80;99.90;;;;;;4979567;28;20911;-83
2022/01/12 01:41:57;;;;;;;18.13;9.67;;;1.80;99.90;;;;;;4979503;28;20445;-83
2022/01/12 01:55:12;;;;;;;15.40;8.63;;;1.70;99.90;;;;;;4996724;28;20411;-83
2022/01/12 01:57:39;;;;;;;12.93;8.23;;;1.70;99.90;;;;;;4977651;28;20806;-83
2022/01/12 02:00:11;;;;;;;13.13;8.47;;;1.70;99.90;;;;;;4977610;28;20423;-83
2022/01/12 02:02:37;;;;;;;14.53;8.97;;;1.70;99.90;;;;;;4977575;28;20453;-83
2022/01/12 02:05:03;;;;;;;15.40;8.57;;;1.80;99.90;;;;;;4977397;28;20428;-84
2022/01/12 02:07:31;;;;;;;14.73;9.47;;;1.90;99.90;;;;;;4977328;28;20415;-83
2022/01/12 02:09:57;;;;;;;16.97;8.57;;;1.90;99.90;;;;;;4977631;28;20423;-84
2022/01/12 02:12:28;;;;;;;13.93;8.07;;;2.00;99.90;;;;;;4977238;28;20445;-83
2022/01/12 02:14:55;;;;;;;14.13;8.07;;;2.00;99.90;;;;;;4976633;28;20208;-83
2022/01/12 02:17:26;;;;;;;11.37;7.27;;;2.10;99.90;;;;;;4976985;28;20516;-83
2022/01/12 02:36:12;;;;;;;15.17;8.57;;;2.60;99.90;;;;;;4993734;28;20580;-83
2022/01/12 02:41:38;;;;;;;14.50;8.60;;;2.50;99.90;;;;;;4953289;28;20443;-83
2022/01/12 02:54:53;;;;;;;13.83;7.63;;;2.40;99.90;;;;;;4996582;28;20488;-84
2022/01/12 02:57:19;;;;;;;16.83;8.20;;;2.30;99.90;;;;;;4978347;28;20489;-82
2022/01/12 03:00:05;;;;;;;14.43;7.70;;;2.30;99.90;;;;;;4978434;28;20425;-83
2022/01/12 03:02:42;;;;;;;18.50;9.00;;;2.20;99.90;;;;;;4978166;28;21033;-83
2022/01/12 03:07:58;;;;;;;14.23;7.30;;;2.10;99.90;;;;;;4995826;28;20459;-83
2022/01/12 03:10:25;;;;;;;12.03;7.23;;;2.00;99.90;;;;;;4977839;28;20424;-83
2022/01/12 03:12:51;;;;;;;11.63;8.00;;;2.00;99.90;;;;;;4978387;28;21049;-83
2022/01/12 03:15:17;;;;;;;14.27;8.87;;;2.00;99.90;;;;;;4977775;28;20424;-83
2022/01/12 03:17:43;;;;;;;12.40;8.00;;;2.00;99.90;;;;;;4977713;28;20179;-83
2022/01/12 03:20:10;;;;;;;15.23;7.73;;;2.00;99.90;;;;;;4977666;28;20849;-83
2022/01/12 03:22:36;;;;;;;13.90;8.20;;;2.00;99.90;;;;;;4978123;28;20921;-83
2022/01/12 03:25:03;;;;;;;15.07;9.00;;;2.10;99.90;;;;;;4977509;28;20478;-82
2022/01/12 03:27:29;;;;;;;13.70;7.53;;;2.10;99.90;;;;;;4977567;28;20424;-83
2022/01/12 03:29:56;;;;;;;13.77;8.23;;;2.10;99.90;;;;;;4978066;28;20948;-83
2022/01/12 03:33:08;;;;;;;14.57;8.37;;;2.10;99.90;;;;;;4979646;28;20465;-83
2022/01/12 04:08:20;;;;;;;14.17;9.10;;;1.80;99.90;;;;;;4997231;28;20505;-83
2022/01/12 04:11:00;;;;;;;13.50;7.80;;;2.00;99.90;;;;;;4979291;28;20419;-83
2022/01/12 04:13:28;;;;;;;13.50;7.90;;;2.10;99.90;;;;;;4979572;28;20809;-84
2022/01/12 04:16:03;;;;;;;13.93;8.80;;;2.20;99.90;;;;;;4980523;28;20807;-83
2022/01/12 04:18:29;;;;;;;16.47;8.20;;;2.30;99.90;;;;;;4979536;28;20771;-83
2022/01/12 04:20:57;;;;;;;16.30;9.00;;;2.40;99.90;;;;;;4979948;28;20471;-83
2022/01/12 04:23:23;;;;;;;12.53;7.70;;;2.50;99.90;;;;;;4979602;28;20451;-83
2022/01/12 04:25:56;;;;;;;12.47;7.93;;;2.50;99.90;;;;;;4979681;28;21129;-83
2022/01/12 04:28:23;;;;;;;11.93;7.00;;;2.50;99.90;;;;;;4979276;28;20933;-83
2022/01/12 04:30:51;;;;;;;16.07;9.97;;;2.60;99.90;;;;;;4978751;28;21012;-83
2022/01/12 04:33:18;;;;;;;20.40;10.90;;;2.60;99.90;;;;;;4978410;28;20479;-83
2022/01/12 04:35:48;;;;;;;14.63;8.20;;;2.60;99.90;;;;;;4977853;28;20499;-83
2022/01/12 04:38:16;;;;;;;14.57;7.40;;;2.70;99.90;;;;;;4978980;28;20477;-83
2022/01/12 04:40:42;;;;;;;14.33;7.93;;;2.70;99.90;;;;;;4978291;28;20423;-83
2022/01/12 04:43:09;;;;;;;15.10;7.37;;;2.80;99.90;;;;;;4977875;28;20444;-83
2022/01/12 04:45:40;;;;;;;13.43;7.70;;;2.80;99.90;;;;;;4977403;28;20424;-84
2022/01/12 04:50:42;;;;;;;14.80;8.97;;;2.80;99.90;;;;;;4994766;28;20419;-83
2022/01/12 04:53:08;;;;;;;15.80;7.73;;;2.70;99.90;;;;;;4978216;28;20470;-83
2022/01/12 04:55:34;;;;;;;14.60;8.20;;;2.70;99.90;;;;;;4977404;28;21237;-83
2022/01/12 04:58:00;;;;;;;13.30;7.33;;;2.70;99.90;;;;;;4977492;28;20772;-83
2022/01/12 05:00:27;;;;;;;12.27;7.90;;;2.70;99.90;;;;;;4977765;28;20482;-83
2022/01/12 05:13:35;;;;;;;14.73;7.20;;;2.70;99.90;;;;;;4994904;28;20502;-83
2022/01/12 05:16:01;;;;;;;12.13;7.67;;;2.70;99.90;;;;;;4977281;28;20471;-83
2022/01/12 05:18:29;;;;;;;15.00;8.10;;;2.70;99.90;;;;;;4977430;28;20814;-83
2022/01/12 05:20:55;;;;;;;11.47;7.27;;;2.80;99.90;;;;;;4976291;28;20427;-83
2022/01/12 05:23:20;;;;;;;15.47;9.10;;;2.90;99.90;;;;;;4976659;28;20440;-83
2022/01/12 05:25:47;;;;;;;14.27;7.57;;;2.90;99.90;;;;;;4977074;28;20487;-83
2022/01/12 05:28:16;;;;;;;12.40;6.90;;;2.90;99.90;;;;;;4977319;28;20188;-83
2022/01/12 05:30:43;;;;;;;11.10;7.17;;;2.90;99.90;;;;;;4976846;28;20472;-83
2022/01/12 05:33:09;;;;;;;14.07;7.50;;;2.90;99.90;;;;;;4977054;28;21008;-83
2022/01/12 05:35:36;;;;;;;13.87;8.33;;;3.00;99.90;;;;;;4977287;28;20471;-83
2022/01/12 05:38:04;;;;;;;13.97;7.73;;;3.00;99.90;;;;;;4977114;28;20417;-83
2022/01/12 05:40:31;;;;;;;14.47;7.77;;;3.10;99.90;;;;;;4976666;28;20421;-83
2022/01/12 05:43:02;;;;;;;14.83;10.03;;;3.10;99.90;;;;;;4976851;28;20448;-82
2022/01/12 05:45:31;;;;;;;11.23;7.40;;;3.20;99.90;;;;;;4976706;28;20436;-83
2022/01/12 05:50:29;;;;;;;11.93;8.20;;;3.20;99.90;;;;;;4994297;28;20511;-83
2022/01/12 05:52:55;;;;;;;12.27;7.10;;;3.10;99.90;;;;;;4975877;28;20858;-83
2022/01/12 05:55:21;;;;;;;13.00;7.53;;;3.10;99.90;;;;;;4976201;28;20427;-83
2022/01/12 05:57:48;;;;;;;12.90;8.37;;;3.20;99.90;;;;;;4976015;28;20793;-84
2022/01/12 06:00:18;;;;;;;9.80;6.63;;;3.20;99.90;;;;;;4976291;28;21002;-82
2022/01/12 06:05:14;;;;;;;12.50;7.37;;;3.20;99.90;;;;;;5014867;28;20475;-82
2022/01/12 06:07:41;;;;;;;13.47;7.60;;;3.20;99.90;;;;;;5014301;28;20947;-82
2022/01/12 06:10:08;;;;;;;12.43;7.37;;;3.20;99.90;;;;;;5013576;28;20805;-81
2022/01/12 06:12:34;;;;;;;11.00;7.27;;;3.30;99.90;;;;;;5021238;28;20442;-81
2022/01/12 06:14:59;;;;;;;15.67;8.17;;;3.30;99.90;;;;;;5033513;28;20425;-81
2022/01/12 06:17:25;;;;;;;14.10;9.80;;;3.30;99.90;;;;;;5015730;28;20653;-81
2022/01/12 06:19:51;;;;;;;13.90;8.27;;;3.20;99.90;;;;;;5014868;28;20195;-81
2022/01/12 06:22:17;;;;;;;13.47;8.63;;;3.20;99.90;;;;;;5015036;28;20446;-81
2022/01/12 06:24:43;;;;;;;13.53;8.17;;;3.10;99.90;;;;;;5014928;28;20191;-81
2022/01/12 06:27:10;;;;;;;14.47;7.50;;;3.00;99.90;;;;;;5014653;28;20595;-81
2022/01/12 06:30:01;;;;;;;14.87;8.70;;;3.00;99.90;;;;;;5014966;28;20184;-81
2022/01/12 06:32:27;;;;;;;13.30;7.60;;;3.00;99.90;;;;;;5015154;28;20450;-81
2022/01/12 06:34:53;;;;;;;13.20;6.60;;;2.90;99.90;;;;;;5014619;28;20412;-81
2022/01/12 06:37:19;;;;;;;17.30;7.93;;;2.90;99.90;;;;;;5014588;28;20459;-81
2022/01/12 06:39:45;;;;;;;12.10;9.10;;;2.80;99.90;;;;;;5014719;28;20224;-81
2022/01/12 06:42:11;;;;;;;12.00;7.70;;;2.80;99.90;;;;;;5014736;28;20891;-81
2022/01/12 06:44:37;;;;;;;14.47;7.40;;;2.80;99.90;;;;;;5014518;28;20176;-81
2022/01/12 06:47:04;;;;;;;13.27;8.20;;;2.80;99.90;;;;;;5014287;28;20431;-81
2022/01/12 06:49:30;;;;;;;13.23;7.67;;;2.80;99.90;;;;;;5014257;28;20482;-81
2022/01/12 06:51:59;;;;;;;15.13;8.40;;;2.70;99.90;;;;;;5014797;28;20447;-82
2022/01/12 06:54:25;;;;;;;15.90;8.37;;;2.60;99.90;;;;;;5014658;28;20430;-82
2022/01/12 06:56:50;;;;;;;11.53;7.57;;;2.50;99.90;;;;;;5014676;28;20454;-82
2022/01/12 06:59:16;;;;;;;16.33;8.30;;;2.40;99.90;;;;;;5014927;28;20180;-81
2022/01/12 07:01:42;;;;;;;16.20;8.10;;;2.30;99.90;;;;;;5015251;28;20567;-80
2022/01/12 07:04:08;;;;;;;11.10;7.50;;;2.20;99.90;;;;;;5015884;28;20191;-83
2022/01/12 07:06:34;;;;;;;14.40;7.70;;;2.30;99.90;;;;;;5022020;28;20187;-82
2022/01/12 07:09:00;;;;;;;12.70;7.83;;;2.20;99.90;;;;;;5037379;28;20305;-82
2022/01/12 07:11:26;;;;;;;12.63;8.57;;;2.20;99.90;;;;;;5000781;28;20609;-82
2022/01/12 07:13:52;;;;;;;14.73;7.97;;;2.20;99.90;;;;;;5000937;28;20453;-82
2022/01/12 07:16:18;;;;;;;12.40;8.37;;;2.20;99.90;;;;;;5000860;28;20211;-82
2022/01/12 07:18:43;;;;;;;12.07;7.30;;;2.20;99.90;;;;;;5000444;28;20179;-82
2022/01/12 07:21:09;;;;;;;13.80;7.80;;;2.30;99.90;;;;;;4999868;28;20279;-82
2022/01/12 07:23:35;;;;;;;14.90;8.60;;;2.40;99.90;;;;;;5000262;28;20202;-81
2022/01/12 07:26:01;;;;;;;14.87;8.87;;;2.60;99.90;;;;;;4999939;28;20583;-81
2022/01/12 07:28:26;;;;;;;13.80;8.20;;;2.70;99.90;;;;;;4999373;28;20215;-81
2022/01/12 07:30:52;;;;;;;17.00;8.70;;;2.80;99.90;;;;;;4999935;28;20185;-81
2022/01/12 07:33:18;;;;;;;16.70;8.73;;;2.90;99.90;;;;;;4999441;28;20201;-82
2022/01/12 07:35:44;;;;;;;15.33;10.33;;;3.00;99.90;;;;;;5004649;28;20423;-81
2022/01/12 07:38:10;;;;;;;16.27;9.63;;;3.20;99.90;;;;;;5003086;28;20198;-79
2022/01/12 07:40:36;;;;;;;16.40;7.53;;;3.30;99.90;;;;;;5017629;28;20770;-83
2022/01/12 07:43:08;;;;;;;13.83;8.87;;;3.30;99.90;;;;;;5032359;28;20435;-82
2022/01/12 07:45:35;;;;;;;13.13;7.60;;;3.40;99.90;;;;;;5015269;28;20192;-83
2022/01/12 07:48:01;;;;;;;10.27;7.00;;;3.50;99.90;;;;;;5033921;28;20941;-80
2022/01/12 07:50:26;;;;;;;11.63;7.63;;;3.50;99.90;;;;;;5009688;28;20434;-81
2022/01/12 07:52:53;;;;;;;12.93;7.80;;;3.50;99.90;;;;;;5013474;28;20200;-82
2022/01/12 07:55:24;;;;;;;12.80;7.60;;;3.50;99.90;;;;;;5016210;28;20180;-83
2022/01/12 07:57:51;;;;;;;14.70;8.13;;;3.60;99.90;;;;;;5016997;28;20427;-82
2022/01/12 08:00:18;;;;;;;15.00;8.60;;;3.60;99.90;;;;;;5017732;28;20426;-83
2022/01/12 08:02:44;;;;;;;12.23;7.77;;;3.70;99.90;;;;;;5017139;28;21072;-82
2022/01/12 08:05:10;;;;;;;13.20;8.43;;;3.80;99.90;;;;;;5017226;28;20466;-84
2022/01/12 08:07:38;;;;;;;12.27;7.77;;;3.80;99.90;;;;;;5016514;28;20431;-84
2022/01/12 08:10:09;;;;;;;13.73;8.70;;;3.90;99.90;;;;;;5016579;28;20419;-85
2022/01/12 08:12:35;;;;;;;12.93;9.00;;;3.90;99.90;;;;;;5016574;28;20535;-84
2022/01/12 08:15:04;;;;;;;13.63;8.50;;;4.00;99.90;;;;;;5016683;28;20419;-84
2022/01/12 08:17:30;;;;;;;15.00;9.07;;;3.90;99.90;;;;;;5016373;28;20553;-84
2022/01/12 08:19:57;;;;;;;14.40;8.23;;;3.90;99.90;;;;;;5016130;28;20431;-84
2022/01/12 08:22:23;;;;;;;16.37;10.13;;;4.00;99.90;;;;;;5016150;28;20446;-83
2022/01/12 08:24:48;;;;;;;13.47;9.20;;;3.90;99.90;;;;;;5016111;28;20414;-84
2022/01/12 08:27:15;;;;;;;17.27;9.43;;;3.90;99.90;;;;;;5016287;28;20216;-84
2022/01/12 08:29:40;;;;;;;15.37;9.33;;;4.00;99.90;;;;;;5015554;28;20192;-83
2022/01/12 08:32:06;;;;;;;12.00;8.37;;;4.00;99.90;;;;;;5015759;28;20447;-83
2022/01/12 08:34:32;;;;;;;16.33;9.10;;;4.00;99.90;;;;;;5015939;28;20539;-83
2022/01/12 08:36:58;;;;;;;17.50;9.53;;;4.00;99.90;;;;;;5014866;28;20496;-83
2022/01/12 08:39:24;;;;;;;13.00;9.43;;;4.10;99.90;;;;;;5015956;28;20508;-83
2022/01/12 08:41:50;;;;;;;15.97;8.67;;;4.10;99.90;;;;;;5015432;28;20472;-83
2022/01/12 08:44:16;;;;;;;16.53;10.17;;;4.10;99.90;;;;;;5015546;28;20965;-82
2022/01/12 08:46:42;;;;;;;16.50;11.03;;;4.10;99.90;;;;;;5015251;28;20186;-84
2022/01/12 08:49:08;;;;;;;13.63;9.20;;;4.10;99.90;;;;;;5015526;28;20180;-81
2022/01/12 08:51:35;;;;;;;14.63;8.07;;;4.20;99.90;;;;;;5015306;28;20240;-81
2022/01/12 08:54:01;;;;;;;14.97;10.27;;;4.30;99.90;;;;;;5015225;28;20419;-82
2022/01/12 08:56:27;;;;;;;14.93;8.33;;;4.40;99.90;;;;;;5014774;28;20465;-81
2022/01/12 08:58:53;;;;;;;14.27;9.20;;;4.40;99.90;;;;;;5013207;28;20443;-82
2022/01/12 09:01:19;;;;;;;14.40;8.47;;;4.40;99.90;;;;;;5020716;28;20797;-81
2022/01/12 09:03:44;;;;;;;12.50;7.63;;;4.40;99.90;;;;;;5001677;28;20200;-81
2022/01/12 09:06:10;;;;;;;12.53;8.20;;;4.40;99.90;;;;;;5002967;28;20193;-84
2022/01/12 09:08:38;;;;;;;10.83;7.80;;;4.30;99.90;;;;;;5016075;28;20192;-82
2022/01/12 09:11:05;;;;;;;14.77;7.90;;;4.30;99.90;;;;;;5016740;28;20454;-82
2022/01/12 09:13:31;;;;;;;16.63;8.03;;;4.30;99.90;;;;;;5018084;28;20439;-81
2022/01/12 09:15:58;;;;;;;16.60;10.00;;;4.40;99.90;;;;;;5016694;28;20455;-81
2022/01/12 09:18:23;;;;;;;13.40;7.90;;;4.40;99.90;;;;;;5015663;28;21018;-81
2022/01/12 09:20:49;;;;;;;13.87;9.03;;;4.50;99.90;;;;;;5015587;28;20454;-82
2022/01/12 09:23:16;;;;;;;11.53;8.10;;;4.50;99.90;;;;;;5015906;28;20544;-82
2022/01/12 09:25:41;;;;;;;15.30;9.53;;;4.60;99.90;;;;;;5015245;28;20779;-80
2022/01/12 09:28:08;;;;;;;17.13;8.63;;;4.60;99.90;;;;;;5015722;28;20465;-82
2022/01/12 09:30:34;;;;;;;11.07;8.00;;;4.60;99.90;;;;;;5015525;28;20836;-82
2022/01/12 09:33:00;;;;;;;15.23;8.33;;;4.60;99.90;;;;;;5015495;28;20449;-83
2022/01/12 09:35:27;;;;;;;13.33;7.67;;;4.60;99.90;;;;;;5014959;28;20428;-81
2022/01/12 09:37:53;;;;;;;13.70;8.77;;;4.60;99.90;;;;;;5015652;28;20420;-81
2022/01/12 09:40:20;;;;;;;15.93;9.13;;;4.60;99.90;;;;;;5015212;28;20503;-81
2022/01/12 09:42:48;;;;;;;19.07;9.30;;;4.60;99.90;;;;;;5014804;28;20908;-81
2022/01/12 09:45:17;;;;;;;15.30;8.60;;;4.70;99.90;;;;;;5014868;28;20471;-81
2022/01/12 09:47:47;;;;;;;12.23;8.30;;;4.70;99.90;;;;;;5014879;28;20804;-83
2022/01/12 09:50:16;;;;;;;12.10;8.90;;;4.80;99.90;;;;;;5018783;28;20839;-82
2022/01/12 09:52:42;;;;;;;17.73;7.90;;;4.80;99.90;;;;;;5018563;28;21000;-81
2022/01/12 09:55:08;;;;;;;16.87;9.10;;;4.80;99.90;;;;;;5018456;28;20415;-82
2022/01/12 09:57:34;;;;;;;15.20;8.87;;;4.90;99.90;;;;;;5018287;28;20208;-81
2022/01/12 10:00:00;;;;;;;20.53;8.70;;;4.90;99.90;;;;;;5018403;28;20478;-81
2022/01/12 10:02:26;;;;;;;12.73;8.80;;;4.90;99.90;;;;;;5020081;28;20202;-83
2022/01/12 10:05:07;;;;;;;14.03;7.80;;;5.00;99.90;;;;;;5021440;28;20684;-83
2022/01/12 10:07:33;;;;;;;12.23;7.57;;;5.00;99.90;;;;;;5021366;28;20522;-83
2022/01/12 10:10:05;;;;;;;16.50;9.60;;;5.10;99.90;;;;;;5018563;28;20456;-82
2022/01/12 10:12:31;;;;;;;15.97;8.80;;;5.20;99.90;;;;;;5015040;28;20473;-83
2022/01/12 10:15:00;;;;;;;14.70;9.40;;;5.20;99.90;;;;;;5017232;28;20430;-82
2022/01/12 10:17:35;;;;;;;15.70;9.10;;;5.30;99.90;;;;;;5017097;28;20514;-83
2022/01/12 10:20:09;;;;;;;14.43;8.30;;;5.30;99.90;;;;;;5000291;28;20423;-82
2022/01/12 10:22:36;;;;;;;14.73;9.33;;;5.30;99.90;;;;;;5000514;28;20833;-83
2022/01/12 10:25:18;;;;;;;17.50;8.50;;;5.30;99.90;;;;;;5000175;28;20944;-82
2022/01/12 10:27:44;;;;;;;14.40;9.17;;;5.40;99.90;;;;;;5000012;28;20513;-83
2022/01/12 10:30:19;;;;;;;17.33;8.83;;;5.40;99.90;;;;;;4999458;28;20427;-83
2022/01/12 10:32:44;;;;;;;17.13;7.87;;;5.40;99.90;;;;;;4999428;28;20448;-83
2022/01/12 10:35:10;;;;;;;16.60;8.03;;;5.40;99.90;;;;;;4998461;28;20434;-82
2022/01/12 10:37:36;;;;;;;16.13;8.43;;;5.40;99.90;;;;;;4998682;28;20233;-82
2022/01/12 10:40:04;;;;;;;16.70;9.33;;;5.50;99.90;;;;;;4999316;28;20272;-84
2022/01/12 10:42:30;;;;;;;19.93;9.73;;;5.60;99.90;;;;;;4998486;28;20208;-82
2022/01/12 10:45:04;;;;;;;24.87;9.77;;;5.60;99.90;;;;;;4999822;28;20420;-85
2022/01/12 10:47:33;;;;;;;20.33;10.17;;;5.50;99.90;;;;;;4999478;28;20508;-84
2022/01/12 10:50:03;;;;;;;20.33;9.37;;;5.60;99.90;;;;;;4999205;28;20438;-84
2022/01/12 10:52:31;;;;;;;19.23;10.77;;;5.60;99.90;;;;;;4998104;28;20814;-83
2022/01/12 10:55:01;;;;;;;18.33;10.27;;;5.60;99.90;;;;;;5014212;28;20416;-83
2022/01/12 10:57:30;;;;;;;16.70;9.20;;;5.70;99.90;;;;;;4997425;28;20461;-84
2022/01/12 11:00:07;;;;;;;16.07;9.07;;;5.70;99.90;;;;;;4996897;28;20463;-83
2022/01/12 11:02:34;;;;;;;24.77;9.83;;;5.60;99.90;;;;;;4997432;28;20442;-83
2022/01/12 11:05:01;;;;;;;20.80;9.77;;;5.50;99.90;;;;;;4997535;28;20860;-83
2022/01/12 11:07:31;;;;;;;25.43;10.60;;;5.40;99.90;;;;;;4997877;28;20428;-82
2022/01/12 11:10:00;;;;;;;27.70;10.37;;;5.30;99.90;;;;;;4997510;28;20437;-82
2022/01/12 11:12:27;;;;;;;21.50;10.40;;;5.30;99.90;;;;;;4997132;28;21072;-83
2022/01/12 11:14:53;;;;;;;21.50;12.20;;;5.30;99.90;;;;;;4997717;28;20906;-83
2022/01/12 11:17:20;;;;;;;24.97;11.17;;;5.20;99.90;;;;;;4997627;28;20552;-82
2022/01/12 11:20:15;;;;;;;30.13;12.17;;;5.20;99.90;;;;;;4998281;28;20434;-82
2022/01/12 11:23:16;;;;;;;23.30;11.67;;;5.20;99.90;;;;;;4998745;28;20480;-82
2022/01/12 11:25:50;;;;;;;20.50;11.33;;;5.30;99.90;;;;;;5018156;28;20433;-83
2022/01/12 11:28:26;;;;;;;24.83;12.40;;;5.20;99.90;;;;;;4997770;28;20425;-82
2022/01/12 11:30:51;;;;;;;32.47;12.93;;;5.20;99.90;;;;;;4997581;28;20433;-82
2022/01/12 11:33:19;;;;;;;31.27;13.60;;;5.10;99.90;;;;;;4998019;28;20479;-82
2022/01/12 11:35:51;;;;;;;26.23;13.73;;;5.00;99.90;;;;;;4997868;28;20723;-82
2022/01/12 11:38:25;;;;;;;39.40;15.10;;;5.10;99.90;;;;;;4997506;28;20421;-82
2022/01/12 11:40:54;;;;;;;36.20;14.93;;;5.00;99.90;;;;;;4998257;28;20837;-82
2022/01/12 11:43:21;;;;;;;31.13;14.20;;;5.00;99.90;;;;;;4998390;28;20440;-82
2022/01/12 11:46:04;;;;;;;29.13;14.17;;;5.10;99.90;;;;;;5015382;28;20516;-83
2022/01/12 11:48:36;;;;;;;31.53;15.60;;;5.10;99.90;;;;;;4997140;28;20840;-82
2022/01/12 11:51:02;;;;;;;26.93;12.33;;;5.30;99.90;;;;;;4997685;28;20413;-83
2022/01/12 11:53:31;;;;;;;33.03;14.20;;;5.30;99.90;;;;;;4997120;28;20444;-83
2022/01/12 11:56:11;;;;;;;34.40;15.80;;;5.40;99.90;;;;;;4996889;28;20494;-82
2022/01/12 11:58:59;;;;;;;34.63;14.47;;;5.50;99.90;;;;;;4997031;28;20426;-81
2022/01/12 12:01:48;;;;;;;37.77;14.00;;;5.50;99.90;;;;;;5010404;28;20428;-81
2022/01/12 12:04:31;;;;;;;34.53;14.83;;;5.50;99.90;;;;;;5004758;28;20497;-82
2022/01/12 12:07:13;;;;;;;27.90;13.70;;;5.40;99.90;;;;;;5026888;28;20439;-83
2022/01/12 12:09:41;;;;;;;28.10;13.07;;;5.40;99.90;;;;;;5032995;28;20422;-83
2022/01/12 12:12:18;;;;;;;37.90;16.80;;;5.40;99.90;;;;;;5031318;28;20450;-83
2022/01/12 12:15:00;;;;;;;32.67;13.50;;;5.40;99.90;;;;;;4998201;28;20434;-83
2022/01/12 12:17:28;;;;;;;38.63;15.27;;;5.20;99.90;;;;;;5006301;28;20464;-82
2022/01/12 12:19:58;;;;;;;34.07;15.33;;;5.30;99.90;;;;;;5018789;28;20437;-83
2022/01/12 12:22:34;;;;;;;28.80;13.80;;;5.20;99.90;;;;;;5019172;28;20489;-82
2022/01/12 12:25:09;;;;;;;38.10;14.97;;;5.20;99.90;;;;;;5023260;28;20498;-82
2022/01/12 12:27:45;;;;;;;39.63;16.23;;;5.30;99.90;;;;;;5023521;28;20427;-82
2022/01/12 12:30:22;;;;;;;36.20;16.70;;;5.40;99.90;;;;;;5039545;28;20428;-82
2022/01/12 12:33:13;;;;;;;34.63;16.73;;;5.40;99.90;;;;;;5053706;28;20563;-82
2022/01/12 12:35:41;;;;;;;35.20;16.20;;;5.40;99.90;;;;;;5051015;28;20831;-82
2022/01/12 12:38:13;;;;;;;37.67;17.90;;;5.60;99.90;;;;;;5051125;28;20423;-83
2022/01/12 12:40:55;;;;;;;33.80;17.67;;;5.80;99.90;;;;;;5051991;28;20414;-81
2022/01/12 12:43:27;;;;;;;40.50;18.53;;;5.80;99.90;;;;;;5056409;28;20438;-82
2022/01/12 12:46:11;;;;;;;39.37;17.93;;;5.80;99.90;;;;;;5053590;28;20404;-82
2022/01/12 12:48:39;;;;;;;36.50;17.80;;;5.80;99.90;;;;;;5052904;28;20421;-80
2022/01/12 12:51:14;;;;;;;48.67;20.23;;;5.80;99.90;;;;;;5052611;28;20819;-80
2022/01/12 12:53:45;;;;;;;38.30;17.90;;;5.90;99.90;;;;;;5051277;28;20447;-82
2022/01/12 12:56:15;;;;;;;37.03;17.67;;;6.00;99.90;;;;;;5052055;28;20435;-81
2022/01/12 12:58:47;;;;;;;33.37;16.63;;;5.90;99.90;;;;;;5063002;28;20480;-82
2022/01/12 13:01:15;;;;;;;35.40;17.20;;;5.80;99.90;;;;;;5064393;28;21003;-82
2022/01/12 13:03:54;;;;;;;45.07;19.63;;;5.70;99.90;;;;;;5062096;28;20562;-82
2022/01/12 13:06:28;;;;;;;40.30;20.60;;;5.60;99.90;;;;;;5062883;28;20435;-81
2022/01/12 13:08:55;;;;;;;50.67;22.30;;;5.50;99.90;;;;;;5062749;28;20421;-82
2022/01/12 13:11:27;;;;;;;41.50;19.53;;;5.60;99.90;;;;;;5060224;28;21291;-81
2022/01/12 13:14:05;;;;;;;47.50;19.90;;;5.60;99.90;;;;;;5061258;28;20471;-82
2022/01/12 13:16:32;;;;;;;57.47;21.50;;;5.60;99.90;;;;;;5060187;28;20460;-82
2022/01/12 13:19:07;;;;;;;46.67;22.83;;;5.50;99.90;;;;;;5058994;28;20467;-81
2022/01/12 13:21:35;;;;;;;43.10;19.10;;;5.60;99.90;;;;;;5057223;28;20779;-81
2022/01/12 13:24:04;;;;;;;49.30;21.33;;;5.70;99.90;;;;;;5054510;28;20434;-81
2022/01/12 13:26:32;;;;;;;41.37;19.87;;;5.60;99.90;;;;;;5056210;28;20465;-81
2022/01/12 13:29:00;;;;;;;41.47;19.27;;;5.60;99.90;;;;;;5056553;28;20425;-80
2022/01/12 13:31:27;;;;;;;38.73;21.53;;;5.70;99.90;;;;;;5054763;28;20527;-81
2022/01/12 13:33:53;;;;;;;42.90;20.73;;;5.80;99.90;;;;;;5055365;28;20417;-81
2022/01/12 13:36:28;;;;;;;44.00;18.03;;;5.80;99.90;;;;;;5054147;28;20428;-81
2022/01/12 13:38:55;;;;;;;48.97;19.63;;;5.80;99.90;;;;;;5054697;28;20415;-80
2022/01/12 13:41:41;;;;;;;49.97;21.50;;;5.80;99.90;;;;;;5054744;28;20428;-81
2022/01/12 13:44:12;;;;;;;50.80;21.90;;;5.80;99.90;;;;;;5042186;28;20457;-81
2022/01/12 13:46:43;;;;;;;43.53;20.40;;;5.80;99.90;;;;;;5041455;28;20939;-81
2022/01/12 13:51:51;;;;;;;43.33;19.80;;;5.60;99.90;;;;;;5043106;28;20541;-81
2022/01/12 13:54:17;;;;;;;57.20;22.73;;;5.70;99.90;;;;;;5040367;28;20418;-81
2022/01/12 13:56:46;;;;;;;61.43;24.17;;;5.70;99.90;;;;;;5039945;28;20448;-81
2022/01/12 13:59:13;;;;;;;43.63;19.93;;;5.80;99.90;;;;;;5039321;28;20188;-81
2022/01/12 14:01:41;;;;;;;50.43;21.47;;;5.80;99.90;;;;;;5040345;28;20444;-81
2022/01/12 14:06:40;;;;;;;43.67;22.33;;;5.90;99.90;;;;;;5039891;28;20414;-81
2022/01/12 14:09:33;;;;;;;58.63;22.43;;;5.80;99.90;;;;;;5038137;28;20421;-81
2022/01/12 14:12:16;;;;;;;54.13;23.73;;;5.90;99.90;;;;;;5038810;28;20478;-82
2022/01/12 14:14:51;;;;;;;49.93;22.43;;;5.80;99.90;;;;;;5038331;28;20428;-81
2022/01/12 14:17:39;;;;;;;45.27;20.13;;;5.90;99.90;;;;;;5038337;28;20506;-81
2022/01/12 14:20:10;;;;;;;51.80;21.87;;;5.90;99.90;;;;;;5037753;28;20418;-81
2022/01/12 14:22:52;;;;;;;47.30;21.67;;;5.90;99.90;;;;;;5039084;28;20486;-81
2022/01/12 14:25:41;;;;;;;59.63;23.40;;;5.90;99.90;;;;;;5037906;28;20429;-81
2022/01/12 14:28:09;;;;;;;56.70;26.07;;;6.00;99.90;;;;;;5037889;28;20635;-81
2022/01/12 14:30:36;;;;;;;49.30;20.20;;;5.90;99.90;;;;;;5037533;28;20481;-80
2022/01/12 14:33:04;;;;;;;56.60;22.27;;;5.90;99.90;;;;;;5037838;28;20460;-81
2022/01/12 14:35:29;;;;;;;52.77;21.23;;;5.90;99.90;;;;;;5037895;28;20485;-80
2022/01/12 14:37:56;;;;;;;54.20;21.53;;;5.90;99.90;;;;;;5036513;28;20434;-81
2022/01/12 14:40:22;;;;;;;55.73;23.43;;;5.90;99.90;;;;;;5036343;28;20194;-81
2022/01/12 14:42:52;;;;;;;48.53;20.50;;;5.90;99.90;;;;;;5037455;28;20446;-82
2022/01/12 14:45:24;;;;;;;56.13;21.40;;;5.90;99.90;;;;;;5036897;28;20434;-81
2022/01/12 14:47:51;;;;;;;40.27;19.83;;;5.90;99.90;;;;;;5036050;28;20520;-80
2022/01/12 14:50:18;;;;;;;46.57;19.30;;;5.90;99.90;;;;;;5035370;28;20842;-80
2022/01/12 14:52:44;;;;;;;43.83;18.37;;;5.90;99.90;;;;;;5035784;28;20478;-81